createdAt,value
2022-10-05T00:00:49.320Z,100203.72
2022-10-05T00:05:51.166Z,100206.25
2022-10-05T00:10:52.910Z,100204.56
2022-10-05T00:16:19.304Z,100208.06
2022-10-05T00:21:25.381Z,100192.16
2022-10-05T00:26:32.106Z,100195.72
2022-10-05T00:31:36.320Z,100192.59
2022-10-05T00:36:39.414Z,100197.81
2022-10-05T00:42:09.132Z,100189.22
2022-10-05T00:47:16.716Z,100179.50
2022-10-05T00:52:30.300Z,100194.88
2022-10-05T00:58:14.596Z,100196.13
2022-10-05T01:03:32.350Z,100198.94
2022-10-05T01:08:36.969Z,100205.16
2022-10-05T01:14:09.404Z,100206.94
2022-10-05T01:19:20.756Z,100188.66
2022-10-05T01:24:34.590Z,100189.78
2022-10-05T01:29:56.492Z,100184.28
2022-10-05T01:35:07.387Z,100181.06
2022-10-05T01:40:15.239Z,100177.94
2022-10-05T01:45:27.853Z,100160.22
2022-10-05T01:50:56.193Z,100163.03
2022-10-05T01:56:27.130Z,100162.47
2022-10-05T02:02:00.304Z,100152.47
2022-10-05T02:07:06.928Z,100146.84
2022-10-05T02:12:16.152Z,100161.63
2022-10-05T02:17:23.885Z,100157.41
2022-10-05T02:22:31.882Z,100187.75
2022-10-05T02:27:40.948Z,100166.63
2022-10-05T02:33:06.668Z,100162.16
2022-10-05T02:38:33.881Z,100167.03
2022-10-05T02:43:40.165Z,100176.81
2022-10-05T02:49:02.651Z,100178.88
2022-10-05T02:54:26.937Z,100173.66
2022-10-05T02:59:36.454Z,100163.34
2022-10-05T03:05:21.209Z,100150.72
2022-10-05T03:10:50.069Z,100142.97
2022-10-05T03:15:58.245Z,100147.53
2022-10-05T03:21:15.264Z,100152.75
2022-10-05T03:26:32.943Z,100130.81
2022-10-05T03:31:51.525Z,100140.50
2022-10-05T03:37:10.525Z,100155.78
2022-10-05T03:42:18.163Z,100149.66
2022-10-05T03:47:34.325Z,100150.88
2022-10-05T03:52:42.850Z,100154.22
2022-10-05T03:57:47.441Z,100158.22
2022-10-05T04:02:59.187Z,100163.47
2022-10-05T04:08:10.192Z,100161.44
2022-10-05T04:13:38.482Z,100166.78
2022-10-05T04:18:48.217Z,100159.88
2022-10-05T04:24:06.643Z,100171.66
2022-10-05T04:29:26.874Z,100164.34
2022-10-05T04:34:47.537Z,100162.88
2022-10-05T04:40:11.109Z,100175.34
2022-10-05T04:45:34.777Z,100180.34
2022-10-05T04:51:10.331Z,100193.22
2022-10-05T04:56:18.141Z,100180.69
2022-10-05T05:01:21.636Z,100195.75
2022-10-05T05:06:52.505Z,100192.34
2022-10-05T05:12:28.480Z,100191.00
2022-10-05T05:17:33.206Z,100200.97
2022-10-05T05:23:06.582Z,100207.28
2022-10-05T05:28:13.543Z,100209.63
2022-10-05T05:33:20.579Z,100211.22
2022-10-05T05:38:34.690Z,100213.47
2022-10-05T05:44:14.477Z,100200.22
2022-10-05T05:49:35.778Z,100211.06
2022-10-05T05:54:44.212Z,100214.84
2022-10-05T05:59:55.970Z,100220.91
2022-10-05T06:05:06.229Z,100218.56
2022-10-05T06:10:31.477Z,100226.78
2022-10-05T06:15:44.871Z,100218.16
2022-10-05T06:20:57.209Z,100204.81
2022-10-05T06:26:30.193Z,100210.34
2022-10-05T06:31:44.543Z,100200.66
2022-10-05T06:36:52.890Z,100207.63
2022-10-05T06:41:58.056Z,100190.19
2022-10-05T06:47:41.604Z,100183.31
2022-10-05T06:53:15.634Z,100193.13
2022-10-05T06:58:41.988Z,100203.44
2022-10-05T07:03:54.455Z,100193.41
2022-10-05T07:08:56.322Z,100191.91
2022-10-05T07:14:33.906Z,100190.16
2022-10-05T07:20:05.323Z,100187.09
2022-10-05T07:25:32.365Z,100174.88
2022-10-05T07:30:56.395Z,100170.25
2022-10-05T07:36:49.812Z,100167.50
2022-10-05T07:42:19.859Z,100156.25
2022-10-05T07:47:38.009Z,100158.66
2022-10-05T07:52:46.117Z,100155.19
2022-10-05T07:58:04.978Z,100146.53
2022-10-05T08:03:18.282Z,100140.75
2022-10-05T08:08:54.050Z,100146.94
2022-10-05T08:14:06.242Z,100144.06
2022-10-05T08:19:17.589Z,100138.81
2022-10-05T08:24:43.858Z,100133.59
2022-10-05T08:30:04.385Z,100123.25
2022-10-05T08:35:37.777Z,100098.84
2022-10-05T08:41:07.329Z,100091.22
2022-10-05T08:46:19.063Z,100090.06
2022-10-05T08:51:51.201Z,100084.72
2022-10-05T08:57:14.240Z,100086.44
2022-10-05T09:02:18.766Z,100074.94
2022-10-05T09:07:27.070Z,100076.72
2022-10-05T09:12:54.699Z,100061.28
2022-10-05T09:18:24.344Z,100061.13
2022-10-05T09:23:44.942Z,100049.59
2022-10-05T09:29:31.445Z,100057.75
2022-10-05T09:35:14.408Z,100049.41
2022-10-05T09:40:53.042Z,100061.63
2022-10-05T09:46:28.615Z,100054.66
2022-10-05T09:51:49.177Z,100037.84
2022-10-05T09:57:28.461Z,100047.78
2022-10-05T10:02:56.220Z,100033.75
2022-10-05T10:08:17.566Z,100038.22
2022-10-05T10:13:49.272Z,100041.19
2022-10-05T10:19:18.485Z,100031.91
2022-10-05T10:24:38.195Z,100021.72
2022-10-05T10:30:09.303Z,100022.09
2022-10-05T10:35:22.190Z,100008.97
2022-10-05T10:40:27.039Z,100010.56
2022-10-05T10:45:28.815Z,100012.78
2022-10-05T10:50:42.582Z,100010.22
2022-10-05T10:56:17.918Z,100007.69
2022-10-05T11:01:27.339Z,100011.69
2022-10-05T11:07:02.637Z,100000.16
2022-10-05T11:12:33.508Z,99992.38
2022-10-05T11:17:55.701Z,99993.56
2022-10-05T11:23:29.701Z,99989.72
2022-10-05T11:28:46.620Z,99984.31
2022-10-05T11:34:23.161Z,99993.44
2022-10-05T11:39:44.997Z,99980.75
2022-10-05T11:45:06.450Z,99973.81
2022-10-05T11:50:17.229Z,99964.50
2022-10-05T11:55:44.820Z,99953.59
2022-10-05T12:00:57.317Z,99960.81
2022-10-05T12:06:01.626Z,99948.75
2022-10-05T12:11:31.037Z,99944.34
2022-10-05T12:16:37.379Z,99937.91
2022-10-05T12:21:53.556Z,99930.38
2022-10-05T12:27:17.086Z,99945.16
2022-10-05T12:32:50.202Z,99928.72
2022-10-05T12:38:28.455Z,99924.91
2022-10-05T12:44:04.832Z,99925.50
2022-10-05T12:49:16.404Z,99908.75
2022-10-05T12:54:36.425Z,99923.38
2022-10-05T12:59:50.117Z,99922.13
2022-10-05T13:05:03.024Z,99918.84
2022-10-05T13:10:17.150Z,99909.03
2022-10-05T13:15:29.669Z,99910.75
2022-10-05T13:21:05.355Z,99916.91
2022-10-05T13:26:25.550Z,99913.41
2022-10-05T13:31:44.813Z,99915.84
2022-10-05T13:37:05.942Z,99900.97
2022-10-05T13:42:21.163Z,99906.13
2022-10-05T13:47:44.452Z,99901.13
2022-10-05T13:53:02.605Z,99900.00
2022-10-05T13:58:40.230Z,99905.78
2022-10-05T14:04:02.376Z,99902.91
2022-10-05T14:09:04.396Z,99912.63
2022-10-05T14:14:44.493Z,99899.28
2022-10-05T14:19:51.146Z,99898.16
2022-10-05T14:25:14.057Z,99896.53
2022-10-05T14:30:15.736Z,99891.78
2022-10-05T14:35:24.066Z,99895.22
2022-10-05T14:40:25.890Z,99903.72
2022-10-05T14:45:33.419Z,99896.00
2022-10-05T14:50:51.044Z,99892.94
2022-10-05T14:56:30.184Z,99891.72
2022-10-05T15:01:36.591Z,99893.91
2022-10-05T15:06:42.442Z,99886.44
2022-10-05T15:11:54.374Z,99879.69
2022-10-05T15:17:03.373Z,99888.50
2022-10-05T15:22:25.288Z,99895.75
2022-10-05T15:27:44.989Z,99894.47
2022-10-05T15:33:01.656Z,99904.97
2022-10-05T15:38:25.761Z,99902.31
2022-10-05T15:43:40.895Z,99898.38
2022-10-05T15:49:12.223Z,99889.16
2022-10-05T15:54:52.679Z,99890.72
2022-10-05T15:59:54.282Z,99895.75
2022-10-05T16:05:20.023Z,99890.91
2022-10-05T16:10:24.127Z,99897.09
2022-10-05T16:15:48.611Z,99894.56
2022-10-05T16:21:00.010Z,99902.00
2022-10-05T16:26:11.636Z,99899.94
2022-10-05T16:31:37.247Z,99892.56
2022-10-05T16:37:32.724Z,99906.19
2022-10-05T16:43:00.814Z,99909.00
2022-10-05T16:48:02.491Z,99903.41
2022-10-05T16:53:38.676Z,99912.91
2022-10-05T16:59:17.680Z,99910.63
2022-10-05T17:04:31.956Z,99917.75
2022-10-05T17:09:44.456Z,99929.97
2022-10-05T17:15:25.605Z,99930.88
2022-10-05T17:21:01.040Z,99928.25
2022-10-05T17:26:29.232Z,99913.84
2022-10-05T17:31:32.056Z,99924.09
2022-10-05T17:36:39.651Z,99917.88
2022-10-05T17:41:41.828Z,99913.59
2022-10-05T17:46:48.474Z,99911.91
2022-10-05T17:52:11.511Z,99914.88
2022-10-05T17:57:16.454Z,99914.44
2022-10-05T18:02:22.790Z,99922.53
2022-10-05T18:07:25.031Z,99923.94
2022-10-05T18:13:05.058Z,99916.88
2022-10-05T18:18:36.314Z,99930.13
2022-10-05T18:23:38.031Z,99932.91
2022-10-05T18:29:14.090Z,99923.69
2022-10-05T18:34:18.497Z,99931.13
2022-10-05T18:39:41.788Z,99931.25
2022-10-05T18:45:14.054Z,99936.59
2022-10-05T18:50:42.156Z,99934.72
2022-10-05T18:56:03.792Z,99937.13
2022-10-05T19:01:21.540Z,99936.28
2022-10-05T19:07:14.224Z,99943.47
2022-10-05T19:12:24.752Z,99946.34
2022-10-05T19:17:48.177Z,99945.75
2022-10-05T19:23:13.853Z,99957.75
2022-10-05T19:28:38.738Z,99948.25
2022-10-05T19:33:53.241Z,99966.25
2022-10-05T19:39:04.062Z,99965.66
2022-10-05T19:44:34.200Z,99967.75
2022-10-05T19:49:56.984Z,99983.84
2022-10-05T19:55:24.975Z,99972.78
2022-10-05T20:00:32.472Z,99974.25
2022-10-05T20:05:34.170Z,99980.72
2022-10-05T20:10:35.847Z,99976.72
2022-10-05T20:15:56.064Z,99979.69
2022-10-05T20:20:57.859Z,100002.25
2022-10-05T20:26:17.859Z,99997.84
2022-10-05T20:31:20.169Z,100010.16
2022-10-05T20:36:21.917Z,100015.59
2022-10-05T20:41:23.596Z,100018.94
2022-10-05T20:46:25.299Z,100026.91
2022-10-05T20:51:28.966Z,100036.94
2022-10-05T20:56:30.878Z,100039.25
2022-10-05T21:01:34.271Z,100051.56
2022-10-05T21:06:36.156Z,100058.66
2022-10-05T21:11:39.714Z,100062.22
2022-10-05T21:16:42.973Z,100065.31
2022-10-05T21:21:46.080Z,100056.50
2022-10-05T21:26:47.816Z,100055.47
2022-10-05T21:31:49.588Z,100058.03
2022-10-05T21:36:51.380Z,100061.81
2022-10-05T21:41:53.072Z,100055.13
2022-10-05T21:46:55.450Z,100055.56
2022-10-05T21:51:58.790Z,100053.03
2022-10-05T21:57:00.784Z,100064.97
2022-10-05T22:02:02.984Z,100074.38
2022-10-05T22:07:18.602Z,100068.72
2022-10-05T22:12:20.738Z,100076.22
2022-10-05T22:17:29.047Z,100078.53
2022-10-05T22:22:30.811Z,100090.47
2022-10-05T22:27:33.597Z,100079.78
2022-10-05T22:32:35.281Z,100087.13
2022-10-05T22:37:38.251Z,100098.47
2022-10-05T22:42:40.969Z,100097.78
2022-10-05T22:47:43.085Z,100103.19
2022-10-05T22:52:44.782Z,100116.59
2022-10-05T22:57:46.498Z,100131.25
2022-10-05T23:02:48.300Z,100134.78
2022-10-05T23:07:50.036Z,100142.31
2022-10-05T23:13:00.811Z,100140.88
2022-10-05T23:18:02.897Z,100151.72
2022-10-05T23:23:04.653Z,100152.09
2022-10-05T23:28:06.675Z,100167.94
2022-10-05T23:33:08.368Z,100174.78
2022-10-05T23:38:10.058Z,100177.56
2022-10-05T23:43:11.736Z,100189.97
2022-10-05T23:48:13.580Z,100188.34
2022-10-05T23:53:16.400Z,100200.31
2022-10-05T23:58:18.876Z,100199.63
